Flight Track Log - Related Links

Times and Time Zones

All times are in EDT time to prevent confusion due to time zone crossing. See the SWA2051 flight status page for this flight to view local times or setup timezone preferences in your user account.

Time Position Orientation Groundspeed Altitude Reporting Facility
EDT Latitude Longitude Course Direction KTS MPH feet Rate Location/Type
Wed 07:39:52 AM 36.1500 -86.7000 268° West 157 181 1,500  Level Nashville TRACON
Wed 07:40:56 AM 36.1481 -86.7561 268° West 162 186 3,100 1,839 Climbing Memphis Center
Wed 07:41:56 AM 36.1983 -86.7639 353° North 145 167 5,300 2,600 Climbing Memphis Center
Wed 07:42:56 AM 36.2119 -86.6683 80° East 212 244 8,300 2,950 Climbing Memphis Center
Wed 07:43:56 AM 36.2258 -86.5700 80° East 259 298 11,200 2,200 Climbing Memphis Center
Wed 07:44:56 AM 36.2411 -86.4586 80° East 313 360 12,700 2,000 Climbing Memphis Center
Wed 07:45:56 AM 36.2539 -86.3344 83° East 353 406 15,200 2,350 Climbing Memphis Center
Wed 07:46:56 AM 36.2706 -86.2075 81° East 368 423 17,400 2,150 Climbing Memphis Center
Wed 07:47:56 AM 36.2847 -86.0753 82° East 377 434 19,500 1,950 Climbing Memphis Center
Wed 07:48:56 AM 36.3006 -85.9303 82° East 382 440 21,300 1,737 Climbing Memphis Center
Wed 07:50:28 AM 36.3522 -85.7342 72° East 405 466 23,900 1,529 Climbing Indianapolis Center
Wed 07:51:29 AM 36.4103 -85.6125 59° Northeast 407 468 25,200 1,268 Climbing Indianapolis Center
Wed 07:52:31 AM 36.4719 -85.4853 59° Northeast 425 489 26,500 1,268 Climbing Indianapolis Center
Wed 07:53:32 AM 36.5319 -85.3561 60° Northeast 430 495 27,800 1,317 Climbing Indianapolis Center
Wed 07:54:34 AM 36.5919 -85.2278 60° Northeast 429 494 29,200 1,366 Climbing Indianapolis Center
Wed 07:55:35 AM 36.6425 -85.0928 65° Northeast 428 493 30,600 1,366 Climbing Indianapolis Center
Wed 07:56:37 AM 36.6842 -84.9544 69° East 427 491 32,000 683 Climbing Indianapolis Center
Wed 07:57:38 AM 36.7344 -84.7889 69° East 424 488 32,000 146 Level Indianapolis Center
Wed 07:58:40 AM 36.7756 -84.6533 69° East 419 482 32,300 484 Climbing Indianapolis Center
Wed 07:59:42 AM 36.8158 -84.5197 69° East 412 474 33,000 341 Climbing Indianapolis Center
Wed 08:00:43 AM 36.8536 -84.3942 69° East 410 472 33,000  Level Indianapolis Center
Wed 08:01:45 AM 36.8944 -84.2594 69° East 412 474 33,000  Level Indianapolis Center
Wed 08:02:46 AM 36.9356 -84.1231 69° East 416 479 33,000  Level Indianapolis Center
Wed 08:03:48 AM 36.9814 -83.9658 70° East 411 473 33,000  Level Indianapolis Center
Wed 08:04:49 AM 37.0222 -83.8314 69° East 412 474 33,000  Level Indianapolis Center
Wed 08:05:51 AM 37.0625 -83.6958 70° East 416 479 33,000  Level Indianapolis Center
Wed 08:06:53 AM 37.1025 -83.5567 70° East 423 487 33,000  Level Indianapolis Center
Wed 08:07:54 AM 37.1433 -83.4169 70° East 426 490 33,000  Level Indianapolis Center
Wed 08:08:56 AM 37.1831 -83.2772 70° East 423 487 33,000  Level Indianapolis Center
Wed 08:09:57 AM 37.2239 -83.1381 70° East 422 486 33,000  Level Indianapolis Center
Wed 08:10:59 AM 37.2636 -83.0003 70° East 418 481 33,000 244 Level Indianapolis Center
Wed 08:12:00 AM 37.3025 -82.8619 70° East 417 480 33,500 439 Climbing Indianapolis Center
Wed 08:13:02 AM 37.3414 -82.7247 70° East 414 476 33,900 244 Climbing Indianapolis Center
Wed 08:14:03 AM 37.3881 -82.5594 70° East 427 491 34,000 49 Climbing Indianapolis Center
Wed 08:15:05 AM 37.4281 -82.4181 70° East 428 493 34,000  Level Indianapolis Center
Wed 08:16:06 AM 37.4675 -82.2767 71° East 427 491 34,000  Level Indianapolis Center
Wed 08:17:08 AM 37.5069 -82.1356 71° East 426 490 34,000  Level Indianapolis Center
Wed 08:18:09 AM 37.5453 -81.9936 71° East 427 491 34,000  Level Indianapolis Center
Wed 08:19:11 AM 37.5858 -81.8511 70° East 431 496 34,000  Level Indianapolis Center
Wed 08:20:12 AM 37.6247 -81.7094 71° East 429 494 34,000  Level Indianapolis Center
Wed 08:21:14 AM 37.6625 -81.5658 72° East 430 495 34,000 49 Level Indianapolis Center
Wed 08:22:15 AM 37.7047 -81.4089 71° East 433 498 34,100 531 Climbing Indianapolis Center
Wed 08:23:07 AM 37.7328 -81.3006 72° East 432 497 35,000 482 Climbing Washington Center
Wed 08:24:07 AM 37.7686 -81.1589 72° East 427 491 35,000  Level Washington Center
Wed 08:25:05 AM 37.7942 -81.0136 77° East 422 486 35,000  Level Washington Center
Wed 08:26:05 AM 37.8117 -80.8544 82° East 422 486 35,000  Level Washington Center
Wed 08:27:08 AM 37.8286 -80.7056 82° East 422 486 35,000  Level Washington Center
Wed 08:28:05 AM 37.8453 -80.5569 82° East 422 486 35,000  Level Washington Center
Wed 08:29:06 AM 37.8661 -80.4058 80° East 427 491 35,000  Level Washington Center
Wed 08:30:07 AM 37.9108 -80.2769 66° East 442 509 35,000  Level Washington Center
Wed 08:31:07 AM 37.9639 -80.1406 64° Northeast 437 503 35,000  Level Washington Center
Wed 08:32:05 AM 38.0169 -80.0042 64° Northeast 437 503 35,000  Level Washington Center
Wed 08:33:05 AM 38.0719 -79.8675 63° Northeast 437 503 35,000  Level Washington Center
Wed 08:34:06 AM 38.1247 -79.7306 64° Northeast 437 503 35,000  Level Washington Center
Wed 08:35:07 AM 38.1822 -79.5753 65° Northeast 437 503 35,000  Level Washington Center
Wed 08:36:07 AM 38.2389 -79.4356 63° Northeast 437 503 35,000 -150 Level Washington Center
Wed 08:37:07 AM 38.2831 -79.2950 68° East 437 503 34,700 -966 Descending Washington Center
Wed 08:38:05 AM 38.3231 -79.1461 71° East 431 496 33,100 -2,067 Descending Washington Center
Wed 08:39:06 AM 38.3583 -79.0022 73° East 431 496 30,600 -2,459 Descending Washington Center
Wed 08:40:07 AM 38.3936 -78.8581 73° East 426 490 28,100 -1,770 Descending Washington Center
Wed 08:41:08 AM 38.4286 -78.7192 72° East 414 476 27,000 -550 Descending Washington Center
Wed 08:42:07 AM 38.4614 -78.5772 74° East 414 476 27,000  Level Washington Center
Wed 08:43:05 AM 38.5003 -78.4331 71° East 419 482 27,000 -454 Level Washington Center
Wed 08:44:06 AM 38.5328 -78.2989 73° East 412 474 26,100 -1,537 Descending Washington Center
Wed 08:45:06 AM 38.5669 -78.1672 72° East 391 450 23,900 -2,132 Descending Washington Center
Wed 08:46:07 AM 38.5967 -78.0408 73° East 385 443 21,800 -2,067 Descending Washington Center
Wed 08:47:05 AM 38.6281 -77.9197 72° East 366 421 19,800 -1,412 Descending Washington Center
Wed 08:48:06 AM 38.6450 -77.8006 80° East 352 405 19,000 -787 Descending Washington Center
Wed 08:49:07 AM 38.6514 -77.6811 86° East 347 399 18,200 -885 Descending Washington Center
Wed 08:50:08 AM 38.6667 -77.5500 81° East 339 390 17,200 -992 Descending Potomac TRACON
Wed 08:51:08 AM 38.6667 -77.4333 90° East 324 373 16,200 -574 Descending Potomac TRACON
Wed 08:52:03 AM 38.6667 -77.3333 90° East 331 381 16,100 -574 Descending Potomac TRACON
Wed 08:53:03 AM 38.6833 -77.2167 80° East 333 383 15,100 -1,474 Descending Potomac TRACON
Wed 08:53:57 AM 38.6833 -77.1000 90° East 328 377 13,300 -1,579 Descending Potomac TRACON
Wed 08:54:57 AM 38.7000 -76.9833 80° East 316 364 12,100 -1,450 Descending Potomac TRACON
Wed 08:55:57 AM 38.7000 -76.8833 90° East 310 357 10,400 -1,263 Descending Potomac TRACON
Wed 08:56:51 AM 38.7000 -76.7833 90° East 272 313 9,700 -730 Descending Potomac TRACON
Wed 08:57:52 AM 38.7167 -76.7000 76° East 269 310 9,000 -1,041 Descending Potomac TRACON
Wed 08:58:52 AM 38.7667 -76.6167 52° Northeast 270 311 7,600 -1,450 Descending Potomac TRACON
Wed 08:59:52 AM 38.8000 -76.5333 63° Northeast 268 308 6,100 -1,579 Descending Potomac TRACON
Wed 09:00:46 AM 38.8667 -76.5500 349° North 276 318 4,600 -1,043 Descending Potomac TRACON
Wed 09:01:47 AM 38.9333 -76.5833 339° North 270 311 4,100 -298 Descending Potomac TRACON
Wed 09:02:47 AM 39.0000 -76.6333 330° Northwest 272 313 4,000 -50 Descending Potomac TRACON
Wed 09:03:47 AM 39.0333 -76.7167 297° West 270 311 4,000  Level Potomac TRACON
Wed 09:04:47 AM 39.0667 -76.8000 297° West 275 316 4,000  Level Potomac TRACON
Wed 09:05:41 AM 39.0833 -76.8833 284° West 268 308 4,000  Level Potomac TRACON
Wed 09:06:41 AM 39.1167 -76.9667 297° West 261 300 4,000 -100 Level Potomac TRACON
Wed 09:07:41 AM 39.1667 -76.9833 346° North 269 310 3,800 -500 Descending Potomac TRACON
Wed 09:08:41 AM 39.1833 -76.9167 72° East 223 257 3,000 -574 Descending Potomac TRACON
Wed 09:09:36 AM 39.1833 -76.8500 90° East 184 212 2,700 -574 Descending Potomac TRACON
Wed 09:10:36 AM 39.1833 -76.8000 90° East 156 180 1,900 -850 Descending Potomac TRACON
Wed 09:11:36 AM 39.1833 -76.7333 90° East 145 167 1,000 -900 Descending Potomac TRACON

Login

Don't have an account? Register now (free) for customized features, flight alerts, and more!